Time;durP1;ratioP1;P1;durP2;ratioP2;P2;SDS_P1;SDS_P2;PMS_P1;PMS_P2;Temp;Humidity;BMP_temperature;BMP_pressure;BME280_temperature;BME280_humidity;BME280_pressure;Samples;Min_cycle;Max_cycle;Signal;HPM_P1;HPM_P2
2023/03/09 00:01:35;;;;;;;14.38;7.70;;;2.60;99.90;;;;;;5149664;27;20110;-63
2023/03/09 00:04:01;;;;;;;11.65;7.30;;;2.60;99.90;;;;;;5157478;27;20140;-63
2023/03/09 00:06:27;;;;;;;11.18;6.80;;;2.60;99.90;;;;;;5152961;27;20121;-63
2023/03/09 00:08:53;;;;;;;12.00;7.40;;;2.60;99.90;;;;;;5160063;27;20507;-62
2023/03/09 00:11:19;;;;;;;12.80;7.15;;;2.60;99.90;;;;;;5151013;27;20046;-63
2023/03/09 00:13:46;;;;;;;12.30;7.28;;;2.60;99.90;;;;;;5149996;27;20050;-63
2023/03/09 00:16:18;;;;;;;14.45;7.43;;;2.50;99.90;;;;;;5148122;27;20041;-63
2023/03/09 00:18:44;;;;;;;12.23;7.00;;;2.50;99.90;;;;;;5153014;27;20038;-63
2023/03/09 00:21:14;;;;;;;13.90;7.35;;;2.50;99.90;;;;;;5158723;27;20034;-62
2023/03/09 00:23:41;;;;;;;12.70;7.47;;;2.50;99.90;;;;;;5158832;27;20492;-62
2023/03/09 00:26:07;;;;;;;11.65;6.53;;;2.50;99.90;;;;;;5153007;27;20034;-63
2023/03/09 00:28:33;;;;;;;12.73;7.00;;;2.50;99.90;;;;;;5150974;27;20044;-63
2023/03/09 00:31:09;;;;;;;12.38;7.88;;;2.50;99.90;;;;;;5143694;27;20034;-63
2023/03/09 00:33:34;;;;;;;12.32;6.78;;;2.50;99.90;;;;;;5159359;27;20039;-62
2023/03/09 00:36:00;;;;;;;12.15;7.25;;;2.50;99.90;;;;;;5167124;27;20105;-62
2023/03/09 00:38:25;;;;;;;12.43;7.18;;;2.50;99.90;;;;;;5158545;27;20077;-62
2023/03/09 00:40:51;;;;;;;12.95;7.22;;;2.40;99.90;;;;;;5148024;27;20035;-63
2023/03/09 00:43:17;;;;;;;12.93;7.55;;;2.40;99.90;;;;;;5144153;27;20031;-62
2023/03/09 00:45:43;;;;;;;11.45;6.80;;;2.50;99.90;;;;;;5161755;27;20030;-63
2023/03/09 00:48:08;;;;;;;11.52;7.30;;;2.40;99.90;;;;;;5153575;27;20031;-63
2023/03/09 00:50:34;;;;;;;12.23;7.25;;;2.40;99.90;;;;;;5153991;27;20038;-63
2023/03/09 00:52:59;;;;;;;14.55;7.55;;;2.40;99.90;;;;;;5148240;27;20067;-63
2023/03/09 00:55:25;;;;;;;13.73;7.32;;;2.40;99.90;;;;;;5159324;27;20074;-63
2023/03/09 00:57:50;;;;;;;13.27;7.63;;;2.40;99.90;;;;;;5157777;27;20098;-62
2023/03/09 01:00:16;;;;;;;13.75;7.15;;;2.40;99.90;;;;;;5160151;27;20063;-63
2023/03/09 01:02:42;;;;;;;14.20;7.53;;;2.40;99.90;;;;;;5157144;27;20514;-63
2023/03/09 01:05:09;;;;;;;13.95;7.82;;;2.40;99.90;;;;;;5155241;27;20039;-63
2023/03/09 01:07:35;;;;;;;12.85;7.55;;;2.40;99.90;;;;;;5162905;27;20042;-63
2023/03/09 01:10:02;;;;;;;15.27;7.97;;;2.30;99.90;;;;;;5163702;27;20370;-63
2023/03/09 01:12:28;;;;;;;13.75;8.00;;;2.30;99.90;;;;;;5155375;27;20054;-62
2023/03/09 01:14:55;;;;;;;15.05;8.05;;;2.30;99.90;;;;;;5145873;27;20035;-63
2023/03/09 01:17:21;;;;;;;16.10;8.55;;;2.30;99.90;;;;;;5162719;27;20062;-63
2023/03/09 01:19:46;;;;;;;17.08;9.18;;;2.30;99.90;;;;;;5147027;27;20497;-61
2023/03/09 01:22:12;;;;;;;17.23;8.88;;;2.30;99.90;;;;;;5162959;27;20070;-61
2023/03/09 01:24:37;;;;;;;18.15;9.15;;;2.30;99.90;;;;;;5144926;27;20228;-61
2023/03/09 01:27:03;;;;;;;14.98;8.65;;;2.30;99.90;;;;;;5147993;27;20031;-62
2023/03/09 01:29:29;;;;;;;17.13;9.07;;;2.30;99.90;;;;;;5163011;27;20142;-62
2023/03/09 01:31:55;;;;;;;15.77;8.82;;;2.30;99.90;;;;;;5147074;27;20042;-62
2023/03/09 01:34:23;;;;;;;16.85;9.00;;;2.30;99.90;;;;;;5154722;27;20039;-61
2023/03/09 01:36:49;;;;;;;17.00;8.90;;;2.20;99.90;;;;;;5144168;27;20122;-63
2023/03/09 01:39:15;;;;;;;18.20;9.15;;;2.20;99.90;;;;;;5144617;27;20134;-61
2023/03/09 01:41:40;;;;;;;16.13;9.15;;;2.20;99.90;;;;;;5150315;27;20118;-62
2023/03/09 01:44:10;;;;;;;17.30;9.02;;;2.20;99.90;;;;;;5147414;27;20038;-62
2023/03/09 01:46:54;;;;;;;18.05;9.65;;;2.20;99.90;;;;;;5152750;27;20777;-61
2023/03/09 01:49:30;;;;;;;17.25;9.60;;;2.20;99.90;;;;;;5165951;27;20034;-63
2023/03/09 01:52:19;;;;;;;17.20;8.98;;;2.20;99.90;;;;;;5152791;27;20562;-62
2023/03/09 01:54:50;;;;;;;17.88;9.55;;;2.20;99.90;;;;;;5163459;27;20113;-62
2023/03/09 01:57:27;;;;;;;15.95;9.10;;;2.20;99.90;;;;;;5162653;27;20058;-61
2023/03/09 01:59:59;;;;;;;17.08;9.07;;;2.20;99.90;;;;;;5152016;27;20362;-62
2023/03/09 02:02:29;;;;;;;15.35;8.52;;;2.20;99.90;;;;;;5150483;27;20037;-61
2023/03/09 02:05:04;;;;;;;16.88;9.25;;;2.10;99.90;;;;;;5157308;27;20033;-62
2023/03/09 02:07:34;;;;;;;17.10;8.88;;;2.10;99.90;;;;;;5146291;27;20087;-62
2023/03/09 02:10:03;;;;;;;15.30;8.77;;;2.20;99.90;;;;;;5158778;27;20030;-62
2023/03/09 02:12:29;;;;;;;15.10;8.88;;;2.10;99.90;;;;;;5148402;27;20378;-62
2023/03/09 02:14:55;;;;;;;15.98;9.13;;;2.10;99.90;;;;;;5147483;27;20035;-62
2023/03/09 02:17:22;;;;;;;15.20;8.82;;;2.10;99.90;;;;;;5148104;27;20097;-63
2023/03/09 02:20:12;;;;;;;15.45;8.52;;;2.10;99.90;;;;;;5156038;27;20442;-62
2023/03/09 02:22:38;;;;;;;17.90;8.93;;;2.20;99.90;;;;;;5160127;27;20053;-62
2023/03/09 02:25:09;;;;;;;16.17;8.65;;;2.10;99.90;;;;;;5162407;27;20033;-62
2023/03/09 02:27:35;;;;;;;16.08;8.38;;;2.10;99.90;;;;;;5160996;27;20125;-62
2023/03/09 02:30:02;;;;;;;15.02;8.50;;;2.10;99.90;;;;;;5154860;27;20426;-62
2023/03/09 02:32:31;;;;;;;16.33;8.80;;;2.10;99.90;;;;;;5151119;27;20416;-62
2023/03/09 02:34:57;;;;;;;14.70;8.40;;;2.10;99.90;;;;;;5149768;27;20519;-63
2023/03/09 02:37:24;;;;;;;14.80;8.00;;;2.10;99.90;;;;;;5156574;27;20034;-61
2023/03/09 02:39:50;;;;;;;15.10;8.30;;;2.10;99.90;;;;;;5162164;27;20045;-62
2023/03/09 02:42:17;;;;;;;17.35;8.85;;;2.10;99.90;;;;;;5162572;27;20047;-63
2023/03/09 02:44:43;;;;;;;14.75;8.10;;;2.10;99.90;;;;;;5159228;27;20508;-63
2023/03/09 02:47:15;;;;;;;14.57;8.45;;;2.10;99.90;;;;;;5149755;27;20055;-63
2023/03/09 02:49:41;;;;;;;;;;;2.10;99.90;;;;;;5155755;27;20097;-63
2023/03/09 02:52:06;;;;;;;16.90;8.82;;;2.10;99.90;;;;;;5150693;27;20381;-62
2023/03/09 02:54:32;;;;;;;15.25;8.70;;;2.10;99.90;;;;;;5158240;27;20049;-62
2023/03/09 02:56:58;;;;;;;16.63;9.02;;;2.10;99.90;;;;;;5160153;27;20487;-63
2023/03/09 02:59:23;;;;;;;15.65;8.35;;;2.10;99.90;;;;;;5158836;27;20121;-63
2023/03/09 03:01:49;;;;;;;16.65;8.32;;;2.10;99.90;;;;;;5155773;27;20031;-62
2023/03/09 03:04:14;;;;;;;17.63;8.98;;;2.10;99.90;;;;;;5143170;27;20039;-63
2023/03/09 03:06:40;;;;;;;14.77;8.68;;;2.10;99.90;;;;;;5152684;27;20037;-62
2023/03/09 03:09:06;;;;;;;14.20;8.38;;;2.10;99.90;;;;;;5155053;27;20034;-63
2023/03/09 03:11:32;;;;;;;14.20;8.40;;;2.10;99.90;;;;;;5137868;27;20405;-62
2023/03/09 03:13:58;;;;;;;14.63;8.50;;;2.10;99.90;;;;;;5151896;27;20043;-64
2023/03/09 03:16:23;;;;;;;16.00;8.77;;;2.10;99.90;;;;;;5164495;27;20488;-62
2023/03/09 03:18:49;;;;;;;17.95;8.63;;;2.10;99.90;;;;;;5149825;27;20043;-63
2023/03/09 03:21:14;;;;;;;14.20;7.90;;;2.10;99.90;;;;;;5149846;27;20050;-62
2023/03/09 03:23:40;;;;;;;14.45;8.60;;;2.10;99.90;;;;;;5152178;27;20125;-63
2023/03/09 03:26:10;;;;;;;16.90;9.18;;;2.10;99.90;;;;;;5144891;27;20045;-62
2023/03/09 03:28:36;;;;;;;17.08;8.70;;;2.10;99.90;;;;;;5153502;27;20038;-62
2023/03/09 03:31:02;;;;;;;17.23;9.18;;;2.10;99.90;;;;;;5140337;27;20680;-62
2023/03/09 03:33:28;;;;;;;13.82;7.72;;;2.10;99.90;;;;;;5152318;27;20285;-62
2023/03/09 03:35:55;;;;;;;15.25;8.38;;;2.10;99.90;;;;;;5149367;27;20385;-62
2023/03/09 03:38:21;;;;;;;15.27;8.20;;;2.10;99.90;;;;;;5160170;27;20038;-63
2023/03/09 03:40:47;;;;;;;14.70;8.38;;;2.10;99.90;;;;;;5150877;27;20031;-62
2023/03/09 03:43:12;;;;;;;14.80;8.48;;;2.10;99.90;;;;;;5157621;27;20054;-63
2023/03/09 03:45:38;;;;;;;15.18;8.35;;;2.10;99.90;;;;;;5144331;27;20401;-62
2023/03/09 03:48:04;;;;;;;15.73;9.00;;;2.10;99.90;;;;;;5144251;27;20046;-62
2023/03/09 03:50:29;;;;;;;16.33;8.55;;;2.10;99.90;;;;;;5159931;27;20498;-62
2023/03/09 03:52:55;;;;;;;15.98;8.90;;;2.10;99.90;;;;;;5157853;27;20034;-63
2023/03/09 03:55:21;;;;;;;14.60;8.68;;;2.10;99.90;;;;;;5146157;27;20046;-63
2023/03/09 03:57:47;;;;;;;14.52;8.88;;;2.10;99.90;;;;;;5168276;27;20519;-62
2023/03/09 04:00:13;;;;;;;16.38;9.13;;;2.10;99.90;;;;;;5156000;27;20041;-63
2023/03/09 04:02:39;;;;;;;18.77;9.02;;;2.10;99.90;;;;;;5155760;27;20074;-62
2023/03/09 04:05:05;;;;;;;16.45;9.40;;;2.10;99.90;;;;;;5155837;27;20038;-63
2023/03/09 04:07:31;;;;;;;15.48;8.57;;;2.10;99.90;;;;;;5149437;27;20030;-62
2023/03/09 04:09:57;;;;;;;15.65;8.25;;;2.10;99.90;;;;;;5137037;27;20495;-62
2023/03/09 04:12:23;;;;;;;15.15;8.32;;;2.10;99.90;;;;;;5152965;27;20117;-62
2023/03/09 04:14:48;;;;;;;14.32;8.68;;;2.10;99.90;;;;;;5154207;27;20370;-61
2023/03/09 04:17:14;;;;;;;15.57;8.65;;;2.10;99.90;;;;;;5158788;27;20038;-61
2023/03/09 04:19:39;;;;;;;16.67;9.23;;;2.10;99.90;;;;;;5149545;27;20034;-64
2023/03/09 04:22:07;;;;;;;19.55;8.77;;;2.10;99.90;;;;;;5146601;27;20042;-64
2023/03/09 04:24:32;;;;;;;15.80;8.32;;;2.10;99.90;;;;;;5143545;27;20035;-62
2023/03/09 04:26:59;;;;;;;16.08;8.68;;;2.10;99.90;;;;;;5147024;27;20121;-64
2023/03/09 04:29:24;;;;;;;16.08;9.18;;;2.10;99.90;;;;;;5152866;27;20148;-63
2023/03/09 04:31:50;;;;;;;15.85;8.50;;;2.10;99.90;;;;;;5161289;27;20073;-64
2023/03/09 04:34:16;;;;;;;18.27;9.20;;;2.10;99.90;;;;;;5147138;27;20038;-63
2023/03/09 04:36:42;;;;;;;16.63;8.70;;;2.10;99.90;;;;;;5156321;27;20053;-62
2023/03/09 04:39:08;;;;;;;18.05;9.52;;;3.20;99.90;;;;;;5149085;27;20065;-64
2023/03/09 04:41:34;;;;;;;15.90;8.73;;;2.10;99.90;;;;;;5149460;27;20041;-62
2023/03/09 04:43:59;;;;;;;17.17;9.00;;;2.10;99.90;;;;;;5164361;27;20035;-62
2023/03/09 04:46:25;;;;;;;17.45;9.35;;;2.00;99.90;;;;;;5162275;27;20030;-62
2023/03/09 04:48:51;;;;;;;17.25;9.38;;;2.10;99.90;;;;;;5160485;27;20034;-63
2023/03/09 04:51:16;;;;;;;16.83;9.60;;;2.00;99.90;;;;;;5156356;27;20105;-62
2023/03/09 04:53:42;;;;;;;15.98;9.13;;;2.10;99.90;;;;;;5154334;27;20038;-62
2023/03/09 04:56:08;;;;;;;17.33;9.40;;;2.00;99.90;;;;;;5155879;27;20122;-62
2023/03/09 04:58:33;;;;;;;17.70;10.10;;;2.00;99.90;;;;;;5166279;27;20090;-63
2023/03/09 05:01:00;;;;;;;17.33;9.77;;;2.00;99.90;;;;;;5156773;27;20087;-63
2023/03/09 05:03:27;;;;;;;17.50;9.57;;;2.00;99.90;;;;;;5140135;27;20093;-63
2023/03/09 05:05:53;;;;;;;19.58;10.43;;;2.10;99.90;;;;;;5154740;27;20258;-62
2023/03/09 05:08:19;;;;;;;19.30;10.07;;;2.10;99.90;;;;;;5155584;27;20070;-62
2023/03/09 05:10:45;;;;;;;19.23;10.45;;;2.80;99.90;;;;;;5147607;27;20520;-62
2023/03/09 05:13:10;;;;;;;18.83;10.90;;;2.00;99.90;;;;;;5153132;27;20043;-61
2023/03/09 05:15:39;;;;;;;16.63;9.85;;;2.00;99.90;;;;;;5158359;27;20062;-62
2023/03/09 05:18:06;;;;;;;18.45;9.80;;;2.00;99.90;;;;;;5153873;27;20115;-63
2023/03/09 05:20:32;;;;;;;19.80;10.25;;;2.00;99.90;;;;;;5151020;27;20031;-63
2023/03/09 05:22:59;;;;;;;17.67;10.27;;;2.00;99.90;;;;;;5149820;27;20509;-63
2023/03/09 05:25:25;;;;;;;18.65;10.07;;;2.00;99.90;;;;;;5142073;27;20780;-62
2023/03/09 05:27:50;;;;;;;19.35;10.25;;;2.00;99.90;;;;;;5151745;27;20087;-62
2023/03/09 05:30:17;;;;;;;19.75;10.85;;;2.00;99.90;;;;;;5146483;27;20333;-62
2023/03/09 05:32:42;;;;;;;20.65;10.50;;;2.00;99.90;;;;;;5163603;27;20373;-63
2023/03/09 05:35:08;;;;;;;19.73;10.57;;;2.00;99.90;;;;;;5158739;27;20059;-63
2023/03/09 05:37:34;;;;;;;19.85;10.88;;;1.00;99.90;;;;;;5166419;27;20404;-63
2023/03/09 05:40:00;;;;;;;22.38;10.95;;;2.00;99.90;;;;;;5154875;27;20041;-62
2023/03/09 05:42:26;;;;;;;21.20;10.95;;;2.00;99.90;;;;;;5165489;27;20038;-62
2023/03/09 05:44:52;;;;;;;19.70;10.82;;;2.00;99.90;;;;;;5156402;27;20482;-63
2023/03/09 05:47:18;;;;;;;21.77;11.38;;;2.00;99.90;;;;;;5147586;27;20062;-62
2023/03/09 05:49:43;;;;;;;21.50;10.55;;;2.00;99.90;;;;;;5153198;27;20335;-62
2023/03/09 05:52:09;;;;;;;18.35;9.80;;;2.00;99.90;;;;;;5146271;27;20023;-62
2023/03/09 05:54:35;;;;;;;22.33;10.57;;;2.00;99.90;;;;;;5144318;27;20522;-62
2023/03/09 05:57:01;;;;;;;18.20;10.27;;;2.00;99.90;;;;;;5151152;27;20090;-62
2023/03/09 05:59:26;;;;;;;20.38;10.40;;;2.00;99.90;;;;;;5151475;27;20404;-63
2023/03/09 06:01:52;;;;;;;19.02;10.48;;;2.00;99.90;;;;;;5158660;27;20035;-61
2023/03/09 06:04:18;;;;;;;20.33;10.70;;;2.00;99.90;;;;;;5144452;27;20035;-61
2023/03/09 06:06:43;;;;;;;21.25;11.27;;;2.00;99.90;;;;;;5146709;27;20051;-61
2023/03/09 06:09:09;;;;;;;22.02;11.18;;;2.00;99.90;;;;;;5143116;27;20406;-62
2023/03/09 06:11:35;;;;;;;21.80;11.70;;;2.00;99.90;;;;;;5136233;27;20023;-63
2023/03/09 06:14:00;;;;;;;18.27;10.75;;;2.00;99.90;;;;;;5139659;27;20043;-61
2023/03/09 06:16:26;;;;;;;20.02;11.10;;;2.00;99.90;;;;;;5161628;27;20484;-61
2023/03/09 06:18:55;;;;;;;22.40;11.15;;;2.00;99.90;;;;;;5170331;27;20030;-62
2023/03/09 06:21:21;;;;;;;23.55;11.82;;;2.10;99.90;;;;;;5162673;27;20026;-62
2023/03/09 06:23:46;;;;;;;20.38;10.95;;;2.00;99.90;;;;;;5156774;27;20057;-61
2023/03/09 06:26:13;;;;;;;22.48;11.20;;;2.00;99.90;;;;;;5151597;27;20461;-61
2023/03/09 06:28:39;;;;;;;22.73;11.88;;;2.00;99.90;;;;;;5159650;27;20087;-61
2023/03/09 06:31:12;;;;;;;21.83;11.95;;;2.00;99.90;;;;;;5164367;27;20109;-61
2023/03/09 06:33:43;;;;;;;21.85;11.70;;;2.00;99.90;;;;;;5160050;27;20099;-62
2023/03/09 06:36:11;;;;;;;20.35;11.10;;;2.00;99.90;;;;;;5145832;27;20518;-62
2023/03/09 06:38:36;;;;;;;23.00;12.25;;;2.10;99.90;;;;;;5149163;27;20496;-62
2023/03/09 06:41:02;;;;;;;22.63;12.13;;;2.10;99.90;;;;;;5149453;27;20042;-63
2023/03/09 06:43:28;;;;;;;22.77;12.15;;;2.10;99.90;;;;;;5134411;27;20170;-62
2023/03/09 06:45:53;;;;;;;23.83;11.68;;;2.10;99.90;;;;;;5147507;27;20066;-62
2023/03/09 06:48:19;;;;;;;24.63;12.60;;;2.10;99.90;;;;;;5139184;27;20075;-61
2023/03/09 06:50:45;;;;;;;25.02;12.95;;;2.20;99.90;;;;;;5140959;27;20023;-62
2023/03/09 06:53:11;;;;;;;22.95;12.25;;;2.10;99.90;;;;;;5142761;27;20494;-62
2023/03/09 06:55:39;;;;;;;27.13;13.25;;;2.10;99.90;;;;;;5144262;27;20034;-62
2023/03/09 06:58:05;;;;;;;23.42;12.60;;;2.20;99.90;;;;;;5147729;27;20039;-62
2023/03/09 07:00:30;;;;;;;26.33;13.30;;;2.20;99.90;;;;;;5144063;27;20031;-63
2023/03/09 07:02:57;;;;;;;21.70;12.35;;;2.20;99.90;;;;;;5138662;27;20519;-63
2023/03/09 07:05:23;;;;;;;25.23;13.02;;;2.30;99.90;;;;;;5140716;27;20030;-62
2023/03/09 07:07:48;;;;;;;25.23;13.48;;;2.30;99.90;;;;;;5138440;27;20046;-64
2023/03/09 07:10:14;;;;;;;26.58;13.82;;;2.30;99.90;;;;;;5141572;27;20039;-62
2023/03/09 07:12:40;;;;;;;27.10;13.82;;;2.40;99.90;;;;;;5138292;27;20039;-62
2023/03/09 07:15:07;;;;;;;27.70;13.82;;;2.40;99.90;;;;;;5143324;27;20030;-63
2023/03/09 07:17:33;;;;;;;26.92;13.35;;;2.40;99.90;;;;;;5139463;27;20043;-63
2023/03/09 07:19:58;;;;;;;25.20;13.80;;;2.40;99.90;;;;;;5143395;27;20497;-63
2023/03/09 07:22:25;;;;;;;26.25;13.35;;;2.40;99.90;;;;;;5136207;27;20044;-62
2023/03/09 07:24:50;;;;;;;25.20;13.65;;;2.40;99.90;;;;;;5136615;27;20074;-63
2023/03/09 07:27:18;;;;;;;26.02;13.80;;;2.40;99.90;;;;;;5141764;27;20058;-63
2023/03/09 07:29:45;;;;;;;26.88;13.80;;;2.40;99.90;;;;;;5136056;27;20044;-63
2023/03/09 07:32:11;;;;;;;27.85;12.88;;;2.40;99.90;;;;;;5138627;27;20046;-63
2023/03/09 07:34:36;;;;;;;24.02;14.07;;;2.50;99.90;;;;;;5138308;27;20453;-63
2023/03/09 07:37:03;;;;;;;27.33;14.43;;;2.50;99.90;;;;;;5139904;27;20043;-63
2023/03/09 07:39:28;;;;;;;28.70;14.48;;;2.50;99.90;;;;;;5132748;27;20042;-63
2023/03/09 07:41:54;;;;;;;24.92;13.77;;;2.50;99.90;;;;;;5139414;27;20031;-62
2023/03/09 07:44:20;;;;;;;24.48;13.60;;;2.60;99.90;;;;;;5120417;27;20047;-63
2023/03/09 07:46:45;;;;;;;23.55;13.20;;;2.70;99.90;;;;;;5138852;27;20059;-62
2023/03/09 07:49:11;;;;;;;27.20;14.52;;;2.70;99.90;;;;;;5142110;27;20031;-63
2023/03/09 07:51:37;;;;;;;27.55;13.85;;;2.80;99.90;;;;;;5155953;27;20045;-63
2023/03/09 07:54:05;;;;;;;27.67;13.98;;;2.80;99.90;;;;;;5142294;27;20038;-63
2023/03/09 07:56:32;;;;;;;27.20;14.63;;;2.80;99.90;;;;;;5137646;27;20041;-64
2023/03/09 07:58:58;;;;;;;25.73;14.13;;;2.80;99.90;;;;;;5143182;27;20050;-64
2023/03/09 08:01:24;;;;;;;25.88;13.93;;;2.90;99.90;;;;;;5156576;27;20396;-64
2023/03/09 08:03:49;;;;;;;25.67;14.25;;;2.90;99.90;;;;;;5154300;27;20043;-64
2023/03/09 08:06:18;;;;;;;24.75;13.68;;;2.90;99.90;;;;;;5119647;27;20034;-64
2023/03/09 08:08:44;;;;;;;26.83;13.52;;;2.90;99.90;;;;;;5118026;27;20678;-64
2023/03/09 08:11:10;;;;;;;25.75;13.48;;;2.90;99.90;;;;;;5137449;27;20202;-64
2023/03/09 08:13:36;;;;;;;24.77;13.40;;;2.80;99.90;;;;;;5139916;27;20039;-64
2023/03/09 08:16:07;;;;;;;24.02;12.63;;;2.90;99.90;;;;;;5141814;27;20115;-64
2023/03/09 08:18:33;;;;;;;24.50;13.70;;;2.90;99.90;;;;;;5150390;27;20042;-64
2023/03/09 08:21:07;;;;;;;22.30;13.20;;;3.00;99.90;;;;;;5152891;27;20053;-64
2023/03/09 08:23:35;;;;;;;23.23;12.98;;;3.10;99.90;;;;;;5146737;27;20385;-65
2023/03/09 08:26:01;;;;;;;21.08;12.68;;;3.10;99.90;;;;;;5141782;27;20035;-64
2023/03/09 08:28:27;;;;;;;22.83;12.90;;;3.20;99.90;;;;;;5141210;27;20119;-65
2023/03/09 08:30:52;;;;;;;23.33;13.10;;;3.20;99.90;;;;;;5140895;27;20494;-64
2023/03/09 08:33:18;;;;;;;22.63;12.73;;;3.20;99.90;;;;;;5152399;27;20042;-64
2023/03/09 08:35:43;;;;;;;20.70;12.18;;;3.30;99.90;;;;;;5145567;27;20035;-64
2023/03/09 08:38:09;;;;;;;22.60;13.00;;;3.30;99.90;;;;;;5143382;27;20039;-64
2023/03/09 08:40:37;;;;;;;22.45;12.43;;;3.30;99.90;;;;;;5150626;27;20404;-64
2023/03/09 08:43:03;;;;;;;19.80;11.93;;;3.40;99.90;;;;;;5172859;22;20043;-66
2023/03/09 08:45:28;;;;;;;22.10;12.65;;;5.10;99.90;;;;;;5057251;28;20710;-63
2023/03/09 08:47:54;;;;;;;21.95;12.23;;;3.40;99.90;;;;;;5055747;28;20030;-64
2023/03/09 08:50:19;;;;;;;20.75;12.40;;;3.40;99.90;;;;;;5057543;28;20029;-63
2023/03/09 08:52:46;;;;;;;21.17;12.15;;;3.40;99.90;;;;;;5055053;28;20037;-63
2023/03/09 08:55:12;;;;;;;21.73;12.77;;;3.40;99.90;;;;;;5062560;28;20040;-63
2023/03/09 08:57:38;;;;;;;21.38;12.05;;;3.40;99.90;;;;;;5037082;28;20048;-63
2023/03/09 09:00:06;;;;;;;22.17;12.50;;;3.50;99.90;;;;;;5039730;28;20091;-63
2023/03/09 09:02:32;;;;;;;22.27;12.32;;;3.50;99.90;;;;;;5030664;28;20041;-63
2023/03/09 09:04:58;;;;;;;22.05;12.35;;;3.50;99.90;;;;;;5048113;28;20037;-63
2023/03/09 09:07:24;;;;;;;21.33;12.95;;;3.50;99.90;;;;;;5033938;28;20055;-63
2023/03/09 09:09:49;;;;;;;20.63;12.65;;;3.50;99.90;;;;;;5061656;28;20211;-63
2023/03/09 09:12:15;;;;;;;22.30;12.13;;;3.50;99.90;;;;;;5058546;28;20025;-63
2023/03/09 09:14:42;;;;;;;22.08;12.55;;;3.50;99.90;;;;;;5062995;28;20094;-64
2023/03/09 09:17:08;;;;;;;23.50;12.43;;;3.60;99.90;;;;;;5046544;28;20041;-63
2023/03/09 09:19:34;;;;;;;22.42;12.88;;;3.60;99.90;;;;;;5049846;28;20029;-63
2023/03/09 09:22:00;;;;;;;22.23;13.15;;;3.60;99.90;;;;;;5032223;28;20048;-63
2023/03/09 09:24:26;;;;;;;23.08;13.00;;;3.60;99.90;;;;;;5049799;28;20237;-63
2023/03/09 09:26:55;;;;;;;21.40;12.65;;;3.70;99.90;;;;;;5034925;28;20119;-64
2023/03/09 09:29:21;;;;;;;20.38;12.23;;;3.70;99.90;;;;;;5064754;28;20360;-64
2023/03/09 09:31:50;;;;;;;20.88;12.05;;;3.70;99.90;;;;;;5043197;28;20071;-62
2023/03/09 09:34:17;;;;;;;21.80;13.05;;;3.80;99.90;;;;;;5061009;28;20033;-63
2023/03/09 09:36:44;;;;;;;20.35;12.20;;;3.80;99.90;;;;;;5053102;28;20418;-63
2023/03/09 09:39:12;;;;;;;22.75;12.70;;;3.80;99.90;;;;;;5043881;28;20040;-63
2023/03/09 09:41:47;;;;;;;21.08;12.15;;;3.80;99.90;;;;;;5052412;28;20097;-63
2023/03/09 09:44:18;;;;;;;21.73;13.02;;;3.90;99.90;;;;;;5061707;28;20466;-62
2023/03/09 09:46:46;;;;;;;20.85;12.07;;;3.90;99.90;;;;;;5065087;28;20041;-63
2023/03/09 09:49:20;;;;;;;21.13;12.60;;;3.90;99.90;;;;;;5071155;28;20036;-63
2023/03/09 09:52:06;;;;;;;23.05;12.80;;;3.90;99.90;;;;;;5045608;28;20040;-64
2023/03/09 09:54:47;;;;;;;22.60;12.95;;;3.90;99.90;;;;;;5057973;28;20044;-63
2023/03/09 09:57:35;;;;;;;22.65;12.68;;;3.90;99.90;;;;;;5033342;28;20487;-63
2023/03/09 10:00:05;;;;;;;21.33;12.52;;;3.90;99.90;;;;;;4986443;28;20139;-62
2023/03/09 10:03:15;;;;;;;22.30;13.13;;;3.90;99.90;;;;;;5039762;28;20486;-64
2023/03/09 10:06:01;;;;;;;23.50;12.68;;;4.00;99.90;;;;;;4960034;28;20094;-63
2023/03/09 10:08:38;;;;;;;19.35;11.88;;;4.00;99.90;;;;;;4960852;28;20513;-63
2023/03/09 10:11:24;;;;;;;22.48;13.02;;;4.00;99.90;;;;;;5006374;28;20041;-63
2023/03/09 10:14:05;;;;;;;20.05;12.32;;;4.00;99.90;;;;;;5038223;28;20568;-63
2023/03/09 10:16:38;;;;;;;21.70;12.85;;;4.00;99.90;;;;;;5026944;28;20454;-63
2023/03/09 10:19:11;;;;;;;20.92;12.30;;;4.00;99.90;;;;;;5031643;28;20051;-63
2023/03/09 10:22:06;;;;;;;21.95;12.93;;;4.00;99.90;;;;;;5038120;28;20048;-64
2023/03/09 10:24:35;;;;;;;21.88;13.15;;;4.00;99.90;;;;;;5050921;28;20498;-64
2023/03/09 10:27:11;;;;;;;22.52;12.73;;;4.00;99.90;;;;;;5060165;28;20040;-63
2023/03/09 10:29:58;;;;;;;22.85;13.15;;;4.00;99.90;;;;;;5053486;28;20490;-63
2023/03/09 10:32:31;;;;;;;24.35;12.80;;;4.00;99.90;;;;;;5043067;28;20045;-63
2023/03/09 10:35:19;;;;;;;22.60;13.23;;;4.10;99.90;;;;;;5050872;28;20036;-64
2023/03/09 10:37:48;;;;;;;23.75;13.80;;;4.10;99.90;;;;;;5048068;28;20114;-63
2023/03/09 10:40:27;;;;;;;24.60;13.70;;;4.10;99.90;;;;;;5054833;28;20112;-63
2023/03/09 10:42:52;;;;;;;21.83;12.95;;;4.10;99.90;;;;;;5045911;28;20118;-63
2023/03/09 10:45:23;;;;;;;21.30;12.43;;;4.20;99.90;;;;;;5070526;28;20866;-64
2023/03/09 10:47:55;;;;;;;22.38;12.82;;;4.20;99.90;;;;;;5069144;28;20422;-63
2023/03/09 10:50:24;;;;;;;22.15;12.88;;;4.20;99.90;;;;;;5054492;28;20033;-62
2023/03/09 10:52:51;;;;;;;21.00;12.63;;;4.20;99.90;;;;;;5044542;28;20036;-64
2023/03/09 10:55:29;;;;;;;21.98;13.25;;;4.20;99.90;;;;;;5051878;28;20166;-63
2023/03/09 10:58:00;;;;;;;19.80;12.07;;;4.30;99.90;;;;;;5042995;28;20044;-64
2023/03/09 11:00:26;;;;;;;20.75;12.68;;;4.30;99.90;;;;;;5058151;28;20489;-63
2023/03/09 11:02:59;;;;;;;21.77;12.95;;;4.30;99.90;;;;;;5042081;28;20052;-63
2023/03/09 11:05:31;;;;;;;24.67;12.50;;;4.30;99.90;;;;;;5034591;28;20041;-64
2023/03/09 11:08:02;;;;;;;23.52;13.80;;;4.30;99.90;;;;;;5052739;28;20043;-64
2023/03/09 11:10:33;;;;;;;22.67;12.82;;;4.30;99.90;;;;;;5031671;28;20036;-63
2023/03/09 11:13:01;;;;;;;27.58;14.95;;;4.30;99.90;;;;;;5052534;28;20072;-64
2023/03/09 11:15:33;;;;;;;22.50;13.48;;;4.30;99.90;;;;;;5035994;28;20120;-66
2023/03/09 11:18:00;;;;;;;24.23;14.05;;;4.30;99.90;;;;;;5060399;28;20432;-62
2023/03/09 11:20:34;;;;;;;20.38;12.30;;;4.30;99.90;;;;;;5054274;28;20029;-63
2023/03/09 11:23:16;;;;;;;20.23;12.23;;;4.30;99.90;;;;;;5052616;28;20037;-62
2023/03/09 11:26:13;;;;;;;19.43;11.57;;;4.30;99.90;;;;;;5050795;28;20033;-64
2023/03/09 11:28:57;;;;;;;22.10;13.40;;;4.40;99.90;;;;;;5038010;28;20282;-63
2023/03/09 11:31:32;;;;;;;21.40;13.57;;;4.40;99.90;;;;;;5047002;28;20033;-64
2023/03/09 11:33:58;;;;;;;21.58;12.63;;;4.40;99.90;;;;;;5046020;28;20506;-63
2023/03/09 11:36:43;;;;;;;26.60;14.32;;;4.50;99.90;;;;;;5029210;28;20079;-63
2023/03/09 11:39:45;;;;;;;24.10;13.43;;;4.50;99.90;;;;;;5056055;28;20037;-64
2023/03/09 11:42:18;;;;;;;22.85;13.88;;;4.50;99.90;;;;;;5019433;28;20041;-63
2023/03/09 11:44:46;;;;;;;21.77;13.25;;;4.50;99.90;;;;;;5068113;28;20060;-63
2023/03/09 11:47:30;;;;;;;23.30;14.55;;;4.60;99.90;;;;;;5061579;28;20097;-63
2023/03/09 11:49:59;;;;;;;22.65;13.50;;;4.60;99.90;;;;;;5063473;28;20047;-63
2023/03/09 11:52:40;;;;;;;24.88;14.15;;;4.60;99.90;;;;;;5056324;28;20048;-62
2023/03/09 11:55:13;;;;;;;22.65;13.98;;;4.60;99.90;;;;;;5043233;28;20253;-63
2023/03/09 11:57:42;;;;;;;22.80;13.30;;;4.60;99.90;;;;;;5064326;28;20057;-63
2023/03/09 12:00:14;;;;;;;26.50;14.18;;;4.60;99.90;;;;;;5056423;28;20068;-63
2023/03/09 12:03:01;;;;;;;22.63;13.35;;;4.70;99.90;;;;;;5043443;28;20048;-63
2023/03/09 12:05:34;;;;;;;21.75;13.30;;;4.60;99.90;;;;;;5032984;28;20087;-63
2023/03/09 12:08:02;;;;;;;20.52;12.75;;;4.60;99.90;;;;;;5039205;28;20518;-63
2023/03/09 12:10:46;;;;;;;22.65;13.52;;;4.60;99.90;;;;;;5062015;28;20036;-64
2023/03/09 12:13:35;;;;;;;23.77;13.55;;;4.60;99.90;;;;;;5035371;28;20383;-63
2023/03/09 12:16:14;;;;;;;21.90;12.32;;;4.60;99.90;;;;;;5020967;28;20432;-63
2023/03/09 12:18:54;;;;;;;23.10;14.10;;;4.60;99.90;;;;;;5071830;28;20145;-60
2023/03/09 12:21:31;;;;;;;20.00;12.15;;;4.60;99.90;;;;;;5036758;28;20532;-63
2023/03/09 12:23:58;;;;;;;21.10;12.73;;;4.60;99.90;;;;;;5048953;28;20120;-62
2023/03/09 12:26:32;;;;;;;21.33;12.98;;;4.60;99.90;;;;;;5047613;28;20033;-62
2023/03/09 12:29:14;;;;;;;22.65;13.90;;;4.70;99.90;;;;;;5052987;28;20079;-62
2023/03/09 12:31:40;;;;;;;;;;;4.70;99.90;;;;;;5036819;28;20112;-63
2023/03/09 12:34:11;;;;;;;21.92;12.93;;;4.70;99.90;;;;;;5060756;28;19963;-62
2023/03/09 12:36:42;;;;;;;22.00;12.98;;;4.70;99.90;;;;;;5063492;28;20066;-63
2023/03/09 12:39:24;;;;;;;22.98;13.35;;;4.70;99.90;;;;;;5063135;28;20090;-63
2023/03/09 12:42:01;;;;;;;23.07;13.47;;;4.80;99.90;;;;;;5053547;28;20048;-64
2023/03/09 12:44:46;;;;;;;23.15;13.80;;;4.80;99.90;;;;;;5032191;28;20047;-64
2023/03/09 12:47:36;;;;;;;22.55;13.80;;;4.80;99.90;;;;;;5025987;28;20036;-64
2023/03/09 12:50:12;;;;;;;24.38;14.15;;;4.80;99.90;;;;;;5038550;28;20041;-62